Time;durP1;ratioP1;P1;durP2;ratioP2;P2;SDS_P1;SDS_P2;PMS_P1;PMS_P2;Temp;Humidity;BMP_temperature;BMP_pressure;BME280_temperature;BME280_humidity;BME280_pressure;Samples;Min_cycle;Max_cycle;Signal;HPM_P1;HPM_P2
2023/07/01 00:01:18;;;;;;;4.75;1.80;;;;;;;;;;5065237;28;43378;-23
2023/07/01 00:03:48;;;;;;;5.47;1.92;;;;;;;;;;5068363;28;39534;-23
2023/07/01 00:06:16;;;;;;;5.50;2.38;;;;;;;;;;5053228;28;43001;-23
2023/07/01 00:08:44;;;;;;;5.60;2.13;;;;;;;;;;5066219;28;40600;-23
2023/07/01 00:11:12;;;;;;;6.50;2.22;;;;;;;;;;5066764;28;43035;-23
2023/07/01 00:13:40;;;;;;;5.53;2.10;;;;;;;;;;5065199;28;43146;-23
2023/07/01 00:16:08;;;;;;;5.43;2.20;;;;;;;;;;5064713;28;40140;-23
2023/07/01 00:18:36;;;;;;;6.80;2.17;;;;;;;;;;5065071;28;42196;-23
2023/07/01 00:21:05;;;;;;;8.68;2.47;;;;;;;;;;5065103;28;44137;-23
2023/07/01 00:23:33;;;;;;;4.28;2.30;;;;;;;;;;5066514;28;41001;-23
2023/07/01 00:26:01;;;;;;;5.78;2.22;;;;;;;;;;5066073;28;43544;-23
2023/07/01 00:28:29;;;;;;;7.22;2.50;;;;;;;;;;5065033;28;40454;-22
2023/07/01 00:30:57;;;;;;;7.47;2.22;;;;;;;;;;5064724;28;42573;-23
2023/07/01 00:33:25;;;;;;;6.90;2.58;;;;;;;;;;5063229;28;42769;-23
2023/07/01 00:35:53;;;;;;;6.35;2.55;;;;;;;;;;5065778;28;40402;-23
2023/07/01 00:38:23;;;;;;;5.07;2.30;;;;;;;;;;5065272;28;43112;-23
2023/07/01 00:40:51;;;;;;;4.63;2.40;;;;;;;;;;5064165;28;42717;-23
2023/07/01 00:43:19;;;;;;;9.90;2.20;;;;;;;;;;5064762;28;41018;-25
2023/07/01 00:45:47;;;;;;;4.45;2.20;;;;;;;;;;5066340;28;43815;-23
2023/07/01 00:48:17;;;;;;;7.00;2.22;;;;;;;;;;5066303;28;41034;-23
2023/07/01 00:50:45;;;;;;;3.72;2.45;;;;;;;;;;5064352;28;42581;-23
2023/07/01 00:53:13;;;;;;;4.40;2.42;;;;;;;;;;5063779;28;43408;-23
2023/07/01 00:55:43;;;;;;;5.25;2.55;;;;;;;;;;5065273;28;40142;-23
2023/07/01 00:58:12;;;;;;;7.60;2.65;;;;;;;;;;5065600;28;42914;-22
2023/07/01 01:00:40;;;;;;;6.20;2.70;;;;;;;;;;5064826;28;43502;-23
2023/07/01 01:03:20;;;;;;;4.35;2.10;;;;;;;;;;5065339;28;41258;-22
2023/07/01 01:05:50;;;;;;;4.47;2.50;;;;;;;;;;5060850;28;43594;-23
2023/07/01 01:08:19;;;;;;;6.68;2.72;;;;;;;;;;5063004;28;42053;-23
2023/07/01 01:10:48;;;;;;;4.45;2.35;;;;;;;;;;5065301;28;42675;-23
2023/07/01 01:13:17;;;;;;;5.75;2.05;;;;;;;;;;5063548;28;43246;-25
2023/07/01 01:15:45;;;;;;;3.60;2.08;;;;;;;;;;5063277;28;40499;-27
2023/07/01 01:18:16;;;;;;;6.28;2.42;;;;;;;;;;5065412;28;42628;-25
2023/07/01 01:20:44;;;;;;;3.80;2.42;;;;;;;;;;5062716;28;44650;-25
2023/07/01 01:23:18;;;;;;;4.65;2.30;;;;;;;;;;5055840;28;38738;-25
2023/07/01 01:25:47;;;;;;;9.57;2.47;;;;;;;;;;5065353;28;43348;-25
2023/07/01 01:28:16;;;;;;;5.72;2.40;;;;;;;;;;5064341;28;43051;-28
2023/07/01 01:30:44;;;;;;;6.32;2.58;;;;;;;;;;5060911;28;38881;-26
2023/07/01 01:33:13;;;;;;;4.68;1.92;;;;;;;;;;5067968;28;43189;-24
2023/07/01 01:35:41;;;;;;;9.55;2.45;;;;;;;;;;5069048;28;41944;-25
2023/07/01 01:38:10;;;;;;;5.97;2.30;;;;;;;;;;5068267;28;42593;-25
2023/07/01 01:40:40;;;;;;;3.05;2.28;;;;;;;;;;5068586;28;44682;-26
2023/07/01 01:43:09;;;;;;;8.45;2.00;;;;;;;;;;5068368;28;40869;-26
2023/07/01 01:45:38;;;;;;;6.43;2.08;;;;;;;;;;5065897;28;40648;-26
2023/07/01 01:48:06;;;;;;;6.15;2.35;;;;;;;;;;5068825;28;44591;-32
2023/07/01 01:50:34;;;;;;;5.25;2.78;;;;;;;;;;5067662;28;41062;-24
2023/07/01 01:53:02;;;;;;;4.15;2.67;;;;;;;;;;5068518;28;42940;-28
2023/07/01 01:55:30;;;;;;;5.18;2.33;;;;;;;;;;5068108;28;40346;-26
2023/07/01 01:57:58;;;;;;;3.53;2.05;;;;;;;;;;5068173;28;43419;-29
2023/07/01 02:00:27;;;;;;;4.35;1.92;;;;;;;;;;5065675;28;41761;-28
2023/07/01 02:02:56;;;;;;;3.42;2.17;;;;;;;;;;5068328;28;39898;-27
2023/07/01 02:05:24;;;;;;;8.02;2.47;;;;;;;;;;5067750;28;42749;-25
2023/07/01 02:07:53;;;;;;;7.13;2.13;;;;;;;;;;5056149;28;44760;-26
2023/07/01 02:10:21;;;;;;;13.57;2.55;;;;;;;;;;5066283;28;39015;-25
2023/07/01 02:12:49;;;;;;;3.83;2.22;;;;;;;;;;5067722;28;43430;-26
2023/07/01 02:15:17;;;;;;;8.75;2.15;;;;;;;;;;5068059;28;33952;-25
2023/07/01 02:17:45;;;;;;;5.88;2.22;;;;;;;;;;5068337;28;42714;-26
2023/07/01 02:20:14;;;;;;;5.35;2.25;;;;;;;;;;5065288;28;42643;-25
2023/07/01 02:22:42;;;;;;;3.97;1.95;;;;;;;;;;5068333;28;40206;-24
2023/07/01 02:25:10;;;;;;;4.88;2.80;;;;;;;;;;5068040;28;42765;-29
2023/07/01 02:27:38;;;;;;;4.07;2.45;;;;;;;;;;5066951;28;42414;-26
2023/07/01 02:30:07;;;;;;;3.70;2.20;;;;;;;;;;5067765;28;40337;-25
2023/07/01 02:32:35;;;;;;;6.45;2.28;;;;;;;;;;5067104;28;42746;-26
2023/07/01 02:35:03;;;;;;;4.72;1.98;;;;;;;;;;5065922;28;43538;-26
2023/07/01 02:37:33;;;;;;;6.82;2.28;;;;;;;;;;5067952;28;42604;-33
2023/07/01 02:40:02;;;;;;;5.30;2.28;;;;;;;;;;5066582;28;44081;-26
2023/07/01 02:42:31;;;;;;;3.60;2.00;;;;;;;;;;5066040;28;40887;-24
2023/07/01 02:44:59;;;;;;;4.00;2.13;;;;;;;;;;5065278;28;44078;-24
2023/07/01 02:47:27;;;;;;;4.03;2.15;;;;;;;;;;5066967;28;43472;-26
2023/07/01 02:49:55;;;;;;;5.60;2.40;;;;;;;;;;5065238;28;41649;-28
2023/07/01 02:52:24;;;;;;;8.50;2.75;;;;;;;;;;5067642;28;20717;-27
2023/07/01 02:54:54;;;;;;;6.15;2.25;;;;;;;;;;5065403;28;44672;-25
2023/07/01 02:57:22;;;;;;;6.47;2.20;;;;;;;;;;5067253;28;40255;-26
2023/07/01 02:59:50;;;;;;;7.53;2.40;;;;;;;;;;5065454;28;41822;-25
2023/07/01 03:02:18;;;;;;;3.95;2.03;;;;;;;;;;5065951;28;41238;-25
2023/07/01 03:04:46;;;;;;;3.55;2.30;;;;;;;;;;5067916;28;42496;-25
2023/07/01 03:07:14;;;;;;;4.25;1.83;;;;;;;;;;5064832;28;43239;-26
2023/07/01 03:09:42;;;;;;;4.47;1.90;;;;;;;;;;5065033;28;39093;-26
2023/07/01 03:12:12;;;;;;;6.03;2.13;;;;;;;;;;5065018;28;42650;-27
2023/07/01 03:14:39;;;;;;;3.53;1.98;;;;;;;;;;5066294;28;43606;-29
2023/07/01 03:17:07;;;;;;;5.57;1.83;;;;;;;;;;5067238;28;40785;-27
2023/07/01 03:19:36;;;;;;;7.30;2.00;;;;;;;;;;5067197;28;43003;-27
2023/07/01 03:22:04;;;;;;;5.97;1.98;;;;;;;;;;5064729;28;38831;-28
2023/07/01 03:24:34;;;;;;;7.50;2.33;;;;;;;;;;5064062;28;41822;-23
2023/07/01 03:27:03;;;;;;;3.72;2.03;;;;;;;;;;5065094;28;42448;-24
2023/07/01 03:29:33;;;;;;;7.10;2.10;;;;;;;;;;5066209;28;41240;-28
2023/07/01 03:32:03;;;;;;;3.63;2.00;;;;;;;;;;5064169;28;42330;-34
2023/07/01 03:34:31;;;;;;;3.28;1.75;;;;;;;;;;5066451;28;44144;-25
2023/07/01 03:36:59;;;;;;;6.53;2.20;;;;;;;;;;5066523;28;41243;-25
2023/07/01 03:39:27;;;;;;;5.20;1.85;;;;;;;;;;5065941;28;42599;-28
2023/07/01 03:41:55;;;;;;;4.32;2.10;;;;;;;;;;5067204;28;44448;-27
2023/07/01 03:44:23;;;;;;;5.95;2.20;;;;;;;;;;5065786;28;42770;-24
2023/07/01 03:46:52;;;;;;;4.50;2.03;;;;;;;;;;5066562;28;44098;-25
2023/07/01 03:49:20;;;;;;;4.38;2.15;;;;;;;;;;5065866;28;41380;-27
2023/07/01 03:51:48;;;;;;;5.25;2.08;;;;;;;;;;5066150;28;43765;-26
2023/07/01 03:54:16;;;;;;;4.45;1.83;;;;;;;;;;5065679;28;43535;-24
2023/07/01 03:56:44;;;;;;;4.20;2.08;;;;;;;;;;5066246;28;41035;-25
2023/07/01 03:59:12;;;;;;;6.82;2.03;;;;;;;;;;5066571;28;42936;-24
2023/07/01 04:01:40;;;;;;;3.45;1.85;;;;;;;;;;5065531;28;44046;-24
2023/07/01 04:04:10;;;;;;;4.90;1.85;;;;;;;;;;5066774;28;41729;-25
2023/07/01 04:06:38;;;;;;;2.78;2.20;;;;;;;;;;5065500;28;43989;-24
2023/07/01 04:09:12;;;;;;;3.97;1.55;;;;;;;;;;5066756;28;41006;-26
2023/07/01 04:11:40;;;;;;;3.30;1.83;;;;;;;;;;5064976;28;42919;-25
2023/07/01 04:14:08;;;;;;;4.13;2.03;;;;;;;;;;5065643;28;43463;-27
2023/07/01 04:16:36;;;;;;;3.17;1.70;;;;;;;;;;5065165;28;41312;-26
2023/07/01 04:19:04;;;;;;;3.33;1.70;;;;;;;;;;5065585;28;42796;-26
2023/07/01 04:21:33;;;;;;;5.07;2.00;;;;;;;;;;5065194;28;44292;-27
2023/07/01 04:24:04;;;;;;;3.75;2.13;;;;;;;;;;5066597;28;40463;-27
2023/07/01 04:26:32;;;;;;;3.83;2.10;;;;;;;;;;5061729;28;44079;-26
2023/07/01 04:29:00;;;;;;;4.53;2.08;;;;;;;;;;5066382;28;41256;-28
2023/07/01 04:31:28;;;;;;;4.68;2.00;;;;;;;;;;5065713;28;43824;-26
2023/07/01 04:33:56;;;;;;;4.07;2.15;;;;;;;;;;5065332;28;43895;-27
2023/07/01 04:36:24;;;;;;;3.28;2.20;;;;;;;;;;5065722;28;40954;-26
2023/07/01 04:38:53;;;;;;;3.95;2.25;;;;;;;;;;5066296;28;43255;-25
2023/07/01 04:41:21;;;;;;;4.20;2.20;;;;;;;;;;5063508;28;45015;-27
2023/07/01 04:43:49;;;;;;;4.25;2.05;;;;;;;;;;5059148;28;41242;-25
2023/07/01 04:46:17;;;;;;;3.08;2.15;;;;;;;;;;5064080;28;42624;-24
2023/07/01 04:48:45;;;;;;;2.90;1.90;;;;;;;;;;5057543;28;40532;-27
2023/07/01 04:51:13;;;;;;;5.40;2.00;;;;;;;;;;5064803;28;42579;-24
2023/07/01 04:53:42;;;;;;;4.70;2.25;;;;;;;;;;5064800;28;44594;-23
2023/07/01 04:56:11;;;;;;;3.28;2.08;;;;;;;;;;5065300;28;41328;-27
2023/07/01 04:58:39;;;;;;;3.20;1.92;;;;;;;;;;5064062;28;42743;-26
2023/07/01 05:01:07;;;;;;;4.82;1.80;;;;;;;;;;5050503;28;44815;-24
2023/07/01 05:03:35;;;;;;;5.78;1.73;;;;;;;;;;5057842;28;41366;-24
2023/07/01 05:06:04;;;;;;;3.58;1.50;;;;;;;;;;5064134;28;43408;-24
2023/07/01 05:08:32;;;;;;;2.53;1.50;;;;;;;;;;5064362;28;44074;-29
2023/07/01 05:10:59;;;;;;;2.28;1.60;;;;;;;;;;5065099;28;43062;-30
2023/07/01 05:13:29;;;;;;;3.35;1.50;;;;;;;;;;5064739;28;44347;-28
2023/07/01 05:15:57;;;;;;;3.80;1.95;;;;;;;;;;5061048;28;40920;-29
2023/07/01 05:18:25;;;;;;;3.58;1.58;;;;;;;;;;5065018;28;42833;-26
2023/07/01 05:20:53;;;;;;;2.50;1.50;;;;;;;;;;5064956;28;43801;-24
2023/07/01 05:23:20;;;;;;;2.78;1.63;;;;;;;;;;5064579;28;40346;-25
2023/07/01 05:25:49;;;;;;;6.40;1.70;;;;;;;;;;5063034;28;42929;-27
2023/07/01 05:28:17;;;;;;;2.60;1.80;;;;;;;;;;5059034;28;43660;-27
2023/07/01 05:30:47;;;;;;;3.67;1.80;;;;;;;;;;5056159;28;40501;-25
2023/07/01 05:33:15;;;;;;;4.60;1.60;;;;;;;;;;5053822;28;43250;-25
2023/07/01 05:35:43;;;;;;;5.30;1.73;;;;;;;;;;5059742;28;41232;-30
2023/07/01 05:38:12;;;;;;;3.55;2.08;;;;;;;;;;5064786;28;43443;-24
2023/07/01 05:40:40;;;;;;;2.35;1.67;;;;;;;;;;5063346;28;43460;-23
2023/07/01 05:43:08;;;;;;;3.05;1.77;;;;;;;;;;5055827;28;41176;-24
2023/07/01 05:45:36;;;;;;;2.90;1.67;;;;;;;;;;5052518;28;42688;-24
2023/07/01 05:48:06;;;;;;;3.35;1.85;;;;;;;;;;5057094;28;43524;-27
2023/07/01 05:50:34;;;;;;;3.08;1.90;;;;;;;;;;5052292;28;39972;-24
2023/07/01 05:53:02;;;;;;;2.33;1.80;;;;;;;;;;5064976;28;42801;-24
2023/07/01 05:55:30;;;;;;;3.10;1.63;;;;;;;;;;5061493;28;40669;-24
2023/07/01 05:57:58;;;;;;;3.88;1.60;;;;;;;;;;5059926;28;43073;-25
2023/07/01 06:00:26;;;;;;;2.78;1.83;;;;;;;;;;5064129;28;43747;-24
2023/07/01 06:02:54;;;;;;;4.35;1.92;;;;;;;;;;5064704;28;40979;-33
2023/07/01 06:05:24;;;;;;;2.17;1.52;;;;;;;;;;5063554;28;42492;-26
2023/07/01 06:07:52;;;;;;;2.88;1.67;;;;;;;;;;5064954;28;43973;-25
2023/07/01 06:10:19;;;;;;;2.65;1.52;;;;;;;;;;5064399;28;40280;-26
2023/07/01 06:12:47;;;;;;;2.78;1.67;;;;;;;;;;5064011;28;42778;-25
2023/07/01 06:15:15;;;;;;;2.58;1.75;;;;;;;;;;5064715;28;44413;-29
2023/07/01 06:17:43;;;;;;;2.28;1.60;;;;;;;;;;5067841;28;43762;-24
2023/07/01 06:20:11;;;;;;;2.05;1.50;;;;;;;;;;5067809;28;43208;-24
2023/07/01 06:22:41;;;;;;;2.20;1.42;;;;;;;;;;5067324;28;41386;-25
2023/07/01 06:25:10;;;;;;;1.92;1.30;;;;;;;;;;5068013;28;43093;-24
2023/07/01 06:27:38;;;;;;;2.65;1.55;;;;;;;;;;5063933;28;43377;-24
2023/07/01 06:30:07;;;;;;;2.15;1.48;;;;;;;;;;5057299;28;40484;-24
2023/07/01 06:32:35;;;;;;;2.70;1.55;;;;;;;;;;5067152;28;42959;-24
2023/07/01 06:35:03;;;;;;;1.85;1.25;;;;;;;;;;5067988;28;43324;-26
2023/07/01 06:37:31;;;;;;;2.05;1.20;;;;;;;;;;5066922;28;43285;-24
2023/07/01 06:40:01;;;;;;;3.15;1.38;;;;;;;;;;5068228;28;44277;-25
2023/07/01 06:42:29;;;;;;;1.25;1.15;;;;;;;;;;5067208;28;40446;-24
2023/07/01 06:44:57;;;;;;;2.15;1.20;;;;;;;;;;5067564;28;43349;-27
2023/07/01 06:47:25;;;;;;;3.42;1.40;;;;;;;;;;5067064;28;44297;-25
2023/07/01 06:49:53;;;;;;;1.88;1.38;;;;;;;;;;5065365;28;40373;-31
2023/07/01 06:52:21;;;;;;;2.45;1.50;;;;;;;;;;5057576;28;42843;-26
2023/07/01 06:54:49;;;;;;;2.45;1.30;;;;;;;;;;5060308;28;43783;-26
2023/07/01 06:57:18;;;;;;;2.13;1.42;;;;;;;;;;5067871;28;41754;-25
2023/07/01 06:59:46;;;;;;;3.42;1.27;;;;;;;;;;5066869;28;43408;-25
2023/07/01 07:02:14;;;;;;;3.95;1.60;;;;;;;;;;5067198;28;40115;-29
2023/07/01 07:04:43;;;;;;;2.80;1.63;;;;;;;;;;5067569;28;42997;-25
2023/07/01 07:07:11;;;;;;;5.20;1.80;;;;;;;;;;5066968;28;43120;-24
2023/07/01 07:09:39;;;;;;;2.78;1.55;;;;;;;;;;5065686;28;40541;-28
2023/07/01 07:12:08;;;;;;;2.63;1.52;;;;;;;;;;5067568;28;43215;-26
2023/07/01 07:14:37;;;;;;;3.40;1.60;;;;;;;;;;5065710;28;44047;-24
2023/07/01 07:17:05;;;;;;;2.78;1.30;;;;;;;;;;5067230;28;41486;-27
2023/07/01 07:19:33;;;;;;;2.30;1.58;;;;;;;;;;5066850;28;42924;-25
2023/07/01 07:22:01;;;;;;;3.78;1.65;;;;;;;;;;5060850;28;41281;-26
2023/07/01 07:24:29;;;;;;;2.15;1.55;;;;;;;;;;5065676;28;42625;-28
2023/07/01 07:26:57;;;;;;;3.90;1.77;;;;;;;;;;5066403;28;43424;-26
2023/07/01 07:29:26;;;;;;;2.25;1.38;;;;;;;;;;5064896;28;40759;-25
2023/07/01 07:31:55;;;;;;;1.40;1.30;;;;;;;;;;5066498;28;43862;-25
2023/07/01 07:34:23;;;;;;;2.55;1.60;;;;;;;;;;5066061;28;43354;-27
2023/07/01 07:36:52;;;;;;;2.30;1.40;;;;;;;;;;5067127;28;41327;-29
2023/07/01 07:39:20;;;;;;;3.75;1.40;;;;;;;;;;5065446;28;42670;-24
2023/07/01 07:41:49;;;;;;;4.50;1.70;;;;;;;;;;5067212;28;43773;-24
2023/07/01 07:44:18;;;;;;;4.10;1.70;;;;;;;;;;5065490;28;42972;-27
2023/07/01 07:46:46;;;;;;;4.72;1.60;;;;;;;;;;5066893;28;43471;-24
2023/07/01 07:49:16;;;;;;;3.40;1.60;;;;;;;;;;5066572;28;39608;-24
2023/07/01 07:51:44;;;;;;;5.50;1.27;;;;;;;;;;5063729;28;42716;-23
2023/07/01 07:54:12;;;;;;;3.33;1.60;;;;;;;;;;5067091;28;43934;-24
2023/07/01 07:56:40;;;;;;;2.70;1.70;;;;;;;;;;5066268;28;40214;-24
2023/07/01 07:59:08;;;;;;;5.85;1.50;;;;;;;;;;5066476;28;43419;-24
2023/07/01 08:01:36;;;;;;;2.85;1.70;;;;;;;;;;5065792;28;43232;-23
2023/07/01 08:04:04;;;;;;;3.60;1.63;;;;;;;;;;5067658;28;40125;-24
2023/07/01 08:06:33;;;;;;;3.88;1.50;;;;;;;;;;5065301;28;42964;-23
2023/07/01 08:09:01;;;;;;;3.70;1.70;;;;;;;;;;5065676;28;41499;-24
2023/07/01 08:11:29;;;;;;;3.35;1.90;;;;;;;;;;5065638;28;42519;-23
2023/07/01 08:13:57;;;;;;;2.35;1.88;;;;;;;;;;5066202;28;43956;-24
2023/07/01 08:16:25;;;;;;;3.85;1.98;;;;;;;;;;5065793;28;41087;-24
2023/07/01 08:18:53;;;;;;;4.07;2.00;;;;;;;;;;5062323;28;42476;-23
2023/07/01 08:21:21;;;;;;;6.72;2.10;;;;;;;;;;5065512;28;43670;-23
2023/07/01 08:23:50;;;;;;;2.00;1.80;;;;;;;;;;5066549;28;40183;-24
2023/07/01 08:26:18;;;;;;;5.13;1.80;;;;;;;;;;5065666;28;43080;-24
2023/07/01 08:28:46;;;;;;;6.32;2.05;;;;;;;;;;5066192;28;40401;-23
2023/07/01 08:31:15;;;;;;;6.13;2.03;;;;;;;;;;5065965;28;43107;-24
2023/07/01 08:33:43;;;;;;;4.28;1.65;;;;;;;;;;5065836;28;44969;-24
2023/07/01 08:36:11;;;;;;;6.22;2.15;;;;;;;;;;5065771;28;41903;-24
2023/07/01 08:38:39;;;;;;;3.75;2.15;;;;;;;;;;5064875;28;43754;-23
2023/07/01 08:41:08;;;;;;;3.85;1.60;;;;;;;;;;5065453;28;44388;-24
2023/07/01 08:43:36;;;;;;;3.15;1.63;;;;;;;;;;5065317;28;40495;-23
2023/07/01 08:46:04;;;;;;;4.60;1.60;;;;;;;;;;5064817;28;43782;-24
2023/07/01 08:48:33;;;;;;;7.32;2.40;;;;;;;;;;5065336;28;40302;-24
2023/07/01 08:51:02;;;;;;;4.30;1.73;;;;;;;;;;5065919;28;41793;-24
2023/07/01 08:53:30;;;;;;;3.50;2.00;;;;;;;;;;5064712;28;43327;-23
2023/07/01 08:55:58;;;;;;;2.35;1.70;;;;;;;;;;5065502;28;41206;-23
2023/07/01 08:58:28;;;;;;;7.18;1.80;;;;;;;;;;5065065;28;42658;-24
2023/07/01 09:00:57;;;;;;;2.40;1.60;;;;;;;;;;5064655;28;43569;-23
2023/07/01 09:03:24;;;;;;;3.70;1.52;;;;;;;;;;5065324;28;41224;-23
2023/07/01 09:05:53;;;;;;;4.85;1.40;;;;;;;;;;5065980;28;43316;-23
2023/07/01 09:08:21;;;;;;;1.67;1.40;;;;;;;;;;5065065;28;43334;-23
2023/07/01 09:10:48;;;;;;;4.32;1.60;;;;;;;;;;5062588;28;41164;-23
2023/07/01 09:13:17;;;;;;;3.70;1.85;;;;;;;;;;5064410;28;44338;-24
2023/07/01 09:15:46;;;;;;;6.60;1.80;;;;;;;;;;5064512;28;40356;-24
2023/07/01 09:18:21;;;;;;;2.60;1.67;;;;;;;;;;5063735;28;43297;-24
2023/07/01 09:20:50;;;;;;;2.15;1.90;;;;;;;;;;5063670;28;43696;-24
2023/07/01 09:23:27;;;;;;;3.70;1.70;;;;;;;;;;5062218;28;40380;-24
2023/07/01 09:26:11;;;;;;;3.97;1.73;;;;;;;;;;5065365;28;43039;-24
2023/07/01 09:28:39;;;;;;;2.47;1.85;;;;;;;;;;5061887;28;43407;-24
2023/07/01 09:31:09;;;;;;;2.55;1.58;;;;;;;;;;5064738;28;41219;-24
2023/07/01 09:33:37;;;;;;;1.50;1.40;;;;;;;;;;5064678;28;43484;-24
2023/07/01 09:36:05;;;;;;;2.17;1.27;;;;;;;;;;5064864;28;40320;-24
2023/07/01 09:38:33;;;;;;;1.60;1.50;;;;;;;;;;5064973;28;43788;-24
2023/07/01 09:41:12;;;;;;;1.73;1.52;;;;;;;;;;5064973;28;43920;-24
2023/07/01 09:43:40;;;;;;;7.80;1.60;;;;;;;;;;5063681;28;41279;-24
2023/07/01 09:46:10;;;;;;;4.95;1.70;;;;;;;;;;5064477;28;43704;-24
2023/07/01 09:48:38;;;;;;;2.88;1.63;;;;;;;;;;5064507;28;43406;-25
2023/07/01 09:51:06;;;;;;;6.32;2.03;;;;;;;;;;5064433;28;40152;-24
2023/07/01 09:53:34;;;;;;;1.90;1.40;;;;;;;;;;5068321;28;42528;-24
2023/07/01 09:56:03;;;;;;;2.97;1.77;;;;;;;;;;5069040;28;40912;-24
2023/07/01 09:58:31;;;;;;;1.92;1.48;;;;;;;;;;5068357;28;42112;-24
2023/07/01 10:00:59;;;;;;;1.90;1.70;;;;;;;;;;5068873;28;42902;-24
2023/07/01 10:03:29;;;;;;;1.58;1.48;;;;;;;;;;5068155;28;40519;-25
2023/07/01 10:05:58;;;;;;;1.63;1.45;;;;;;;;;;5051971;28;42618;-24
2023/07/01 10:08:26;;;;;;;2.20;1.48;;;;;;;;;;5066341;28;43050;-24
2023/07/01 10:10:56;;;;;;;2.95;1.30;;;;;;;;;;5068689;28;40155;-24
2023/07/01 10:13:24;;;;;;;2.30;1.30;;;;;;;;;;5067440;28;42071;-25
2023/07/01 10:15:52;;;;;;;12.50;1.52;;;;;;;;;;5068685;28;43907;-24
2023/07/01 10:18:21;;;;;;;2.15;1.45;;;;;;;;;;5068158;28;43001;-24
2023/07/01 10:20:51;;;;;;;3.65;1.48;;;;;;;;;;5068854;28;44574;-24
2023/07/01 10:23:20;;;;;;;2.35;1.30;;;;;;;;;;5067775;28;40488;-24
2023/07/01 10:25:48;;;;;;;1.77;1.60;;;;;;;;;;5067695;28;43390;-24
2023/07/01 10:28:16;;;;;;;2.28;1.50;;;;;;;;;;5062699;28;43602;-25
2023/07/01 10:31:03;;;;;;;2.33;1.63;;;;;;;;;;5068176;28;39882;-25
2023/07/01 10:33:52;;;;;;;2.55;1.52;;;;;;;;;;5067436;28;43909;-24
2023/07/01 10:36:22;;;;;;;2.05;1.50;;;;;;;;;;5067237;28;44460;-25
2023/07/01 10:38:50;;;;;;;2.08;1.70;;;;;;;;;;5067281;28;40973;-24
2023/07/01 10:41:48;;;;;;;1.60;1.50;;;;;;;;;;5063460;28;43779;-24
2023/07/01 10:44:23;;;;;;;2.00;1.58;;;;;;;;;;5043363;28;41936;-24
2023/07/01 10:47:10;;;;;;;2.20;1.60;;;;;;;;;;5057066;28;41731;-24
2023/07/01 10:49:38;;;;;;;9.88;2.45;;;;;;;;;;5064553;28;43678;-24
2023/07/01 10:52:07;;;;;;;2.00;1.70;;;;;;;;;;5067637;28;40021;-24
2023/07/01 10:54:38;;;;;;;2.80;1.80;;;;;;;;;;5066513;28;42639;-24
2023/07/01 10:57:13;;;;;;;2.67;2.08;;;;;;;;;;5067559;28;43748;-24
2023/07/01 10:59:41;;;;;;;2.35;2.10;;;;;;;;;;5066394;28;39921;-24
2023/07/01 11:02:10;;;;;;;2.28;1.90;;;;;;;;;;5066296;28;43788;-24
2023/07/01 11:04:56;;;;;;;3.75;2.25;;;;;;;;;;5066635;28;40383;-24
2023/07/01 11:07:26;;;;;;;1.90;1.80;;;;;;;;;;5066699;28;43664;-24
2023/07/01 11:09:54;;;;;;;3.45;1.90;;;;;;;;;;5067450;28;43847;-24
2023/07/01 11:12:22;;;;;;;2.97;2.00;;;;;;;;;;5066736;28;40643;-24
2023/07/01 11:14:51;;;;;;;2.50;1.88;;;;;;;;;;5066783;28;43735;-24
2023/07/01 11:17:20;;;;;;;1.98;1.83;;;;;;;;;;5066547;28;43701;-24
2023/07/01 11:19:53;;;;;;;2.28;2.08;;;;;;;;;;5066504;28;39981;-24
2023/07/01 11:22:21;;;;;;;1.70;1.60;;;;;;;;;;5064048;28;42851;-24
2023/07/01 11:24:50;;;;;;;2.75;2.25;;;;;;;;;;5056876;28;40541;-24
2023/07/01 11:27:20;;;;;;;1.85;1.75;;;;;;;;;;5060140;28;42833;-24
2023/07/01 11:29:48;;;;;;;2.67;2.05;;;;;;;;;;5058561;28;44250;-24
2023/07/01 11:32:17;;;;;;;2.28;2.08;;;;;;;;;;5061781;28;41563;-24
2023/07/01 11:34:46;;;;;;;2.22;2.00;;;;;;;;;;5065724;28;43297;-24
2023/07/01 11:37:22;;;;;;;2.50;1.83;;;;;;;;;;5046417;28;43068;-24
2023/07/01 11:39:52;;;;;;;2.28;2.08;;;;;;;;;;5064890;28;40447;-24
2023/07/01 11:42:21;;;;;;;2.35;2.15;;;;;;;;;;5065808;28;42736;-24
2023/07/01 11:44:49;;;;;;;2.10;1.90;;;;;;;;;;5066381;28;43505;-24
2023/07/01 11:47:17;;;;;;;2.60;1.98;;;;;;;;;;5062829;28;42867;-24
2023/07/01 11:49:45;;;;;;;4.63;2.00;;;;;;;;;;5066752;28;43089;-24
2023/07/01 11:52:22;;;;;;;2.75;1.90;;;;;;;;;;5065582;28;41727;-24
2023/07/01 11:54:54;;;;;;;3.65;1.90;;;;;;;;;;5066671;28;42258;-24
2023/07/01 11:57:22;;;;;;;4.32;2.15;;;;;;;;;;5062090;28;43801;-25
2023/07/01 11:59:53;;;;;;;5.13;2.00;;;;;;;;;;5057254;28;39887;-25
2023/07/01 12:02:26;;;;;;;3.85;2.13;;;;;;;;;;5059319;28;43150;-25
2023/07/01 12:04:54;;;;;;;2.92;1.98;;;;;;;;;;5062650;28;43295;-25
2023/07/01 12:07:22;;;;;;;3.20;2.40;;;;;;;;;;5066499;28;40603;-25
2023/07/01 12:09:52;;;;;;;3.45;2.22;;;;;;;;;;5064866;28;44041;-25
2023/07/01 12:12:35;;;;;;;2.60;2.30;;;;;;;;;;5063344;28;40485;-25
2023/07/01 12:15:03;;;;;;;3.47;2.33;;;;;;;;;;5065270;28;42160;-24
2023/07/01 12:17:31;;;;;;;2.50;2.30;;;;;;;;;;5066048;28;43284;-25
2023/07/01 12:19:59;;;;;;;5.70;2.60;;;;;;;;;;5065141;28;40250;-24
2023/07/01 12:22:28;;;;;;;4.00;2.60;;;;;;;;;;5064699;28;42934;-25
2023/07/01 12:24:58;;;;;;;4.72;2.30;;;;;;;;;;5066072;28;44470;-25
2023/07/01 12:27:30;;;;;;;3.63;2.53;;;;;;;;;;5064977;28;40554;-24
2023/07/01 12:29:58;;;;;;;6.97;3.03;;;;;;;;;;5066962;28;43643;-25
2023/07/01 12:32:26;;;;;;;3.03;2.30;;;;;;;;;;5065597;28;40594;-25
2023/07/01 12:34:56;;;;;;;3.28;2.63;;;;;;;;;;5066877;28;43819;-25
2023/07/01 12:37:25;;;;;;;3.55;2.38;;;;;;;;;;5065972;28;43849;-25
2023/07/01 12:39:53;;;;;;;5.50;2.55;;;;;;;;;;5065152;28;40646;-25
2023/07/01 12:42:22;;;;;;;6.50;2.35;;;;;;;;;;5065903;28;43320;-24
2023/07/01 12:44:50;;;;;;;3.03;2.15;;;;;;;;;;5064942;28;43303;-24
2023/07/01 12:47:19;;;;;;;3.47;3.03;;;;;;;;;;5062571;28;42269;-24
2023/07/01 12:49:47;;;;;;;4.40;3.00;;;;;;;;;;5062043;28;42742;-24
2023/07/01 12:52:15;;;;;;;3.15;2.85;;;;;;;;;;5066434;28;32638;-24
2023/07/01 12:54:43;;;;;;;2.92;2.63;;;;;;;;;;5066205;28;42741;-24
2023/07/01 12:57:11;;;;;;;3.00;2.47;;;;;;;;;;5066172;28;44401;-24
2023/07/01 12:59:41;;;;;;;3.63;2.72;;;;;;;;;;5057364;28;40295;-23
2023/07/01 13:02:09;;;;;;;5.30;2.58;;;;;;;;;;5061697;28;42269;-24
2023/07/01 13:04:37;;;;;;;4.82;2.72;;;;;;;;;;5056180;28;44194;-24
2023/07/01 13:07:06;;;;;;;2.80;2.42;;;;;;;;;;5062088;28;39754;-24
2023/07/01 13:09:37;;;;;;;10.35;3.53;;;;;;;;;;5059544;28;42316;-24
2023/07/01 13:12:05;;;;;;;8.50;2.95;;;;;;;;;;5065264;28;43020;-24
2023/07/01 13:14:33;;;;;;;3.45;2.63;;;;;;;;;;5065146;28;42694;-24
2023/07/01 13:17:02;;;;;;;4.63;2.65;;;;;;;;;;5065339;28;44441;-23
2023/07/01 13:19:30;;;;;;;2.83;2.60;;;;;;;;;;5065072;28;39890;-24
2023/07/01 13:21:59;;;;;;;4.15;2.88;;;;;;;;;;5065501;28;42573;-24
2023/07/01 13:24:27;;;;;;;4.20;2.78;;;;;;;;;;5064791;28;44514;-24
2023/07/01 13:26:56;;;;;;;4.60;2.53;;;;;;;;;;5064690;28;40065;-24
2023/07/01 13:29:25;;;;;;;2.72;2.35;;;;;;;;;;5064894;28;43142;-24
2023/07/01 13:31:53;;;;;;;2.50;2.30;;;;;;;;;;5065752;28;44159;-25
2023/07/01 13:34:22;;;;;;;3.88;2.28;;;;;;;;;;5064816;28;40677;-24
2023/07/01 13:36:52;;;;;;;2.97;2.22;;;;;;;;;;5065084;28;43038;-24
2023/07/01 13:39:23;;;;;;;3.97;2.22;;;;;;;;;;5064522;28;41496;-24
2023/07/01 13:41:51;;;;;;;3.38;1.83;;;;;;;;;;5064494;28;42107;-24
2023/07/01 13:44:20;;;;;;;2.20;2.00;;;;;;;;;;5063824;28;43199;-24
2023/07/01 13:46:48;;;;;;;2.00;1.90;;;;;;;;;;5065059;28;40470;-24
2023/07/01 13:49:17;;;;;;;2.97;2.00;;;;;;;;;;5065123;28;42038;-23
2023/07/01 13:51:46;;;;;;;2.30;1.88;;;;;;;;;;5065564;28;43523;-24
2023/07/01 13:54:15;;;;;;;2.17;1.80;;;;;;;;;;5065648;28;41125;-24
2023/07/01 13:56:43;;;;;;;2.28;2.13;;;;;;;;;;5065646;28;43893;-24
2023/07/01 13:59:13;;;;;;;3.95;2.35;;;;;;;;;;5065759;28;40661;-24
2023/07/01 14:01:42;;;;;;;3.45;2.38;;;;;;;;;;5065421;28;44359;-24
2023/07/01 14:04:10;;;;;;;3.65;2.28;;;;;;;;;;5064982;28;42948;-24
2023/07/01 14:06:38;;;;;;;3.90;2.50;;;;;;;;;;5064660;28;41108;-24
2023/07/01 14:09:08;;;;;;;2.92;2.38;;;;;;;;;;5064838;28;43525;-24
2023/07/01 14:11:36;;;;;;;2.75;2.55;;;;;;;;;;5063294;28;45116;-24
2023/07/01 14:14:04;;;;;;;2.65;2.45;;;;;;;;;;5065330;28;39886;-23
2023/07/01 14:16:32;;;;;;;3.35;3.05;;;;;;;;;;5061606;28;43551;-24
2023/07/01 14:19:00;;;;;;;3.60;2.80;;;;;;;;;;5056110;28;43311;-24
2023/07/01 14:21:29;;;;;;;3.10;2.80;;;;;;;;;;5057796;28;43644;-24
2023/07/01 14:23:58;;;;;;;3.50;2.63;;;;;;;;;;5058442;28;43539;-24
2023/07/01 14:26:28;;;;;;;3.75;2.92;;;;;;;;;;5055886;28;41382;-24
2023/07/01 14:28:59;;;;;;;3.13;2.60;;;;;;;;;;5056756;28;43282;-24
2023/07/01 14:31:28;;;;;;;3.88;2.65;;;;;;;;;;5057928;28;43561;-24
2023/07/01 14:33:56;;;;;;;4.22;3.10;;;;;;;;;;5057075;28;41618;-24
2023/07/01 14:36:25;;;;;;;7.50;3.10;;;;;;;;;;5057937;28;43131;-24
2023/07/01 14:38:53;;;;;;;3.60;3.30;;;;;;;;;;5059185;28;43410;-24
2023/07/01 14:41:22;;;;;;;3.15;2.85;;;;;;;;;;5060685;28;40620;-24
2023/07/01 14:43:52;;;;;;;4.22;3.17;;;;;;;;;;5061164;28;43389;-24
2023/07/01 14:46:20;;;;;;;4.65;3.80;;;;;;;;;;5059244;28;41202;-24
2023/07/01 14:48:48;;;;;;;6.68;3.70;;;;;;;;;;5066564;28;43037;-24
2023/07/01 14:51:16;;;;;;;4.40;3.38;;;;;;;;;;5061612;28;44496;-24
2023/07/01 14:53:46;;;;;;;3.72;3.10;;;;;;;;;;5059397;28;40470;-25